Billings, MT (59101)

5:48 AM MST on February 14, 2016 (GMT -0700)
Jupiter Sulphur | | Change Station
CLOSE
Current Station
Personal Weather Station
Location: Billings, MT
Elevation: 3114 ft
Nearby Weather Stations

Elev 3114 ft 45.78 °N, 108.49 °W | Updated 1 minute ago

Snow
Snow
35.5 °F
Feels Like 36 °F
N
3.0
Wind Variable Wind from SSW
Gusts 7.0 mph

Today
High -- | Low -- °F
--% Chance of Precip.
Yesterday
High -- | Low -- °F
Precip. -- in
Pressure 29.91 in
Visibility 9.0 miles
Clouds Overcast 3900 ft
Windchill 36 °F
Dew Point 32 °F
Humidity 87%
Rainfall 0.00 in
Snow Depth Not available.
7:18 AM 5:38 PM
Waxing Crescent, 41% visible
METAR KBIL 141153Z 21007KT 9SM -SN OVC039 01/M01 A2986 RMK AO2 SLP126 P0000 60000 T00061006 10033 20006 58012 $
Pressure 29.91 in
Visibility 9.0 miles
Clouds Overcast 3900 ft
Windchill 36 °F
Dew Point 32 °F
Humidity 87%
Rainfall 0.00 in
Snow Depth Not available.
7:18 AM 5:38 PM
Waxing Crescent, 41% visible
METAR KBIL 141153Z 21007KT 9SM -SN OVC039 01/M01 A2986 RMK AO2 SLP126 P0000 60000 T00061006 10033 20006 58012 $

10-Day Weather Forecast

Almanac

Astronomy

Feb. 14, 2016 Rise Set
Actual Time
Civil Twilight
Nautical Twilight
Astronomical Twilight
Moon
Length of Visible Light
Length of Day
Tomorrow will be .
, % of the Moon is Illuminated

Today's Extremes

State Highs State Lows

Community

WunderPhotos

Upload Photos

1,892,775 photos uploaded!

WunderBlog® & News

Nearby

Air Quality

  Air Quality AQ Index Pollutant
Not available.

Snow Depth

Station Depth Elevation

Earthquake Activity

City Distance Mag. Time & Date
Minimum magnitude displayed is 2.5.

Coastal Water Temperatures

Place Temperature

Stations

Nearby Weather Stations

Station Location Temp. Windchill Dew Point Humidity Wind Precip. Elev Updated Type
                   

Watches & Warnings

There are currently no watches in effect.